White Sulphur Springs, New York
Current Conditions -  °F | °C
As of 4:35 PM on Saturday 25 Oct 2014 (Local Time) from KMSV Reporting Station
Clear Clear  
Wind Chill: 61°   Ceiling: Unl
Heat Index: 61°   Visibility: 10mi
Dew Point: 41°   Wind: 10mph
Humidity: 48%   Direction: 260°W
Pressure: 29.67"   Gusts: 16mph
Location:  41.8°N, 74.83°W
Report Text: KMSV 252035Z AUTO 26009G14KT 10SM CLR 16/05 A2967 RMK AO1
Loading
Personal Weather Stations






























Interactive Weather Map
Tropical Storm Tracking
New forecast layout! Learn more

10-Day Weather Forecast

Advertisements
Track Severe Weather on mobile